< Typhoon 195612 1956 Season Typhoon 195614 >
Typhoon 195613 (FREDA)
General InformationTrack Information on Google Maps || Disaster Info.ResourceGoogle EarthGE AnimationAtom FeedGeoJSON
Detalied Best Track (Time Zone = UTC)
Year Month Day Hour Lat. Long. Pressure (hPa) Wind (kt) Class Image Chart
1956 9 13 00 17.6 131.3 1006 0 2 -- Chart
1956 9 13 06 18.3 130.8 1000 0 2 -- Chart
1956 9 13 12 18.8 130.2 1000 0 2 -- Chart
1956 9 13 18 19.4 129.6 1000 0 2 -- Chart
1956 9 14 00 19.8 129.1 990 0 9 -- Chart
1956 9 14 06 19.9 128.1 990 0 9 -- Chart
1956 9 14 12 20.8 127.3 990 0 9 -- Chart
1956 9 14 18 21.6 126.4 990 0 9 -- Chart
1956 9 15 00 22.4 125.4 990 0 9 -- Chart
1956 9 15 06 23.0 124.4 985 0 9 -- Chart
1956 9 15 12 23.3 123.6 980 0 9 -- Chart
1956 9 15 18 23.4 123.1 980 0 9 -- Chart
1956 9 16 00 23.7 122.3 980 0 9 -- Chart
1956 9 16 06 23.9 121.5 980 0 9 -- Chart
1956 9 16 12 23.9 121.0 990 0 9 -- Chart
1956 9 16 18 24.0 120.5 990 0 9 -- Chart
1956 9 17 00 24.0 120.0 994 0 9 -- Chart
1956 9 17 06 24.0 119.6 994 0 9 -- Chart
1956 9 17 12 24.0 119.3 994 0 9 -- Chart
1956 9 17 18 24.0 118.8 994 0 9 -- Chart
1956 9 18 00 24.0 118.5 994 0 9 -- Chart
1956 9 18 06 24.1 117.8 994 0 9 -- Chart
1956 9 18 12 24.3 117.1 996 0 9 -- Chart
1956 9 18 18 24.5 116.4 996 0 9 -- Chart
1956 9 19 00 25.0 115.8 996 0 9 -- Chart
1956 9 19 06 26.0 116.4 998 0 9 -- Chart
1956 9 19 12 27.0 117.2 1000 0 6 -- Chart
1956 9 19 18 28.5 118.2 1004 0 6 -- Chart
1956 9 20 00 29.8 118.2 1006 0 6 -- Chart
1956 9 20 06 30.7 119.1 1004 0 6 -- Chart
1956 9 20 12 31.2 120.6 1004 0 6 -- Chart
1956 9 20 18 31.5 122.3 1004 0 6 -- Chart
1956 9 21 00 31.8 123.9 1004 0 6 -- Chart
1956 9 21 06 33.0 124.9 1004 0 6 -- Chart
1956 9 21 12 34.3 127.3 1004 0 6 -- Chart
1956 9 21 18 34.6 128.0 1004 0 6 -- Chart
1956 9 22 00 36.8 133.1 1007 0 6 -- Chart
1956 9 22 06 37.0 137.0 1008 0 6 -- Chart
1956 9 22 12 36.1 140.5 1008 0 6 -- Chart
1956 9 22 18 38.0 148.0 1004 0 6 -- Chart
1956 9 23 00 38.0 151.2 1002 0 6 -- Chart
1956 9 23 06 41.0 155.0 1002 0 6 -- Chart
1956 9 23 12 42.0 159.5 998 0 6 -- Chart
1956 9 23 18 42.5 159.9 990 0 6 -- Chart
1956 9 24 00 44.0 165.0 988 0 6 -- Chart
1956 9 24 06 43.0 169.0 980 0 6 -- Chart
1956 9 24 12 44.0 171.1 980 0 6 -- Chart
1956 9 24 18 47.0 175.0 975 0 6 -- Chart
1956 9 25 00 49.0 176.0 976 0 6 -- Chart
1956 9 25 06 50.7 178.0 982 0 6 -- Chart
1956 9 25 12 51.0 179.0 982 0 6 -- Chart
1956 9 25 18 52.0 182.0 980 0 6 -- Chart
Japan Meteorological Agency Best Track Data | Correction Date : 1989-06-01
< Typhoon 195612 1956 Season Typhoon 195614 >

Help